Time;durP1;ratioP1;P1;durP2;ratioP2;P2;SDS_P1;SDS_P2;PMS_P1;PMS_P2;Temp;Humidity;BMP_temperature;BMP_pressure;BME280_temperature;BME280_humidity;BME280_pressure;Samples;Min_cycle;Max_cycle;Signal;HPM_P1;HPM_P2
2024/01/04 00:05:29;;;;;;;0.63;0.20;;;;;;;7.28;100.00;96165.84;15291331;19;20025;-60
2024/01/04 00:10:56;;;;;;;0.30;0.10;;;;;;;7.37;100.00;96155.81;15287233;19;20367;-61
2024/01/04 00:16:22;;;;;;;0.90;0.40;;;;;;;7.44;100.00;96153.16;15295822;19;20259;-60
2024/01/04 00:21:46;;;;;;;0.45;0.20;;;;;;;7.52;100.00;96155.66;15292176;19;20022;-61
2024/01/04 00:27:14;;;;;;;0.43;0.10;;;;;;;7.59;100.00;96153.84;15288817;19;20082;-61
2024/01/04 00:32:38;;;;;;;0.20;0.20;;;;;;;7.65;100.00;96141.50;15288834;19;20025;-60
2024/01/04 00:38:03;;;;;;;0.60;0.20;;;;;;;7.69;100.00;96145.44;15291313;19;20019;-60
2024/01/04 00:43:37;;;;;;;0.65;0.20;;;;;;;7.74;100.00;96142.16;15286311;19;20021;-61
2024/01/04 00:49:01;;;;;;;0.60;0.30;;;;;;;7.84;100.00;96134.56;15291223;19;20074;-59
2024/01/04 00:54:26;;;;;;;0.90;0.20;;;;;;;7.84;100.00;96124.69;15293654;19;20526;-61
2024/01/04 00:59:53;;;;;;;1.17;0.30;;;;;;;7.86;100.00;96119.13;15288015;19;20010;-79
2024/01/04 01:05:19;;;;;;;0.20;0.20;;;;;;;7.85;100.00;96118.31;15289757;19;20021;-79
2024/01/04 01:10:43;;;;;;;0.43;0.30;;;;;;;8.02;100.00;96112.56;15289070;19;20013;-78
2024/01/04 01:16:11;;;;;;;0.57;0.30;;;;;;;8.10;100.00;96116.94;15293255;19;20022;-78
2024/01/04 01:21:36;;;;;;;0.75;0.30;;;;;;;8.08;100.00;96129.69;15294633;19;20089;-78
2024/01/04 01:27:01;;;;;;;1.27;0.30;;;;;;;8.08;100.00;96127.03;15290956;19;20011;-77
2024/01/04 01:32:28;;;;;;;1.02;0.30;;;;;;;8.14;100.00;96145.00;15290613;19;20026;-77
2024/01/04 01:37:53;;;;;;;0.75;0.28;;;;;;;8.17;100.00;96136.56;15286599;19;20019;-77
2024/01/04 01:43:17;;;;;;;0.95;0.30;;;;;;;8.13;100.00;96130.75;15285283;19;20022;-78
2024/01/04 01:48:45;;;;;;;0.30;0.20;;;;;;;8.06;100.00;96142.47;15304228;19;20022;-78
2024/01/04 01:54:10;;;;;;;0.45;0.20;;;;;;;7.94;100.00;96147.63;15305586;19;20029;-78
2024/01/04 01:59:35;;;;;;;0.85;0.20;;;;;;;7.89;100.00;96139.34;15305900;19;20006;-78
2024/01/04 02:05:09;;;;;;;0.40;0.20;;;;;;;7.85;100.00;96134.41;15301369;19;20772;-78
2024/01/04 02:10:33;;;;;;;0.57;0.15;;;;;;;7.88;100.00;96154.59;15295008;19;20019;-54
2024/01/04 02:15:59;;;;;;;0.20;0.20;;;;;;;7.88;100.00;96149.25;15298608;19;20397;-57
2024/01/04 02:21:26;;;;;;;0.88;0.30;;;;;;;7.90;100.00;96141.00;15300607;19;20014;-55
2024/01/04 02:26:54;;;;;;;0.40;0.20;;;;;;;7.93;100.00;96136.06;15301252;19;20476;-54
2024/01/04 02:32:18;;;;;;;1.02;0.20;;;;;;;7.88;100.00;96164.50;15297872;19;20031;-52
2024/01/04 02:37:43;;;;;;;1.08;0.22;;;;;;;7.74;100.00;96166.28;15302359;19;20018;-54
2024/01/04 02:43:10;;;;;;;0.30;0.20;;;;;;;7.63;100.00;96167.69;15297407;19;20344;-52
2024/01/04 02:48:35;;;;;;;0.68;0.22;;;;;;;7.43;100.00;96168.41;15293527;19;20014;-52
2024/01/04 02:53:59;;;;;;;0.57;0.20;;;;;;;7.29;100.00;96185.44;15295216;19;20036;-52
2024/01/04 02:59:27;;;;;;;0.30;0.20;;;;;;;7.21;100.00;96195.25;15297535;19;20631;-54
2024/01/04 03:04:51;;;;;;;0.20;0.20;;;;;;;7.16;100.00;96211.09;15302262;19;20014;-56
2024/01/04 03:10:24;;;;;;;1.08;0.30;;;;;;;7.18;100.00;96208.19;15295488;19;20018;-56
2024/01/04 03:15:51;;;;;;;0.60;0.20;;;;;;;7.20;100.00;96233.75;15299993;19;20025;-56
2024/01/04 03:21:16;;;;;;;0.52;0.13;;;;;;;7.28;100.00;96224.75;15288827;19;20011;-53
2024/01/04 03:26:41;;;;;;;0.65;0.13;;;;;;;7.33;100.00;96222.34;15296579;19;20094;-52
2024/01/04 03:32:09;;;;;;;0.85;0.30;;;;;;;7.39;100.00;96231.44;15292603;19;20086;-51
2024/01/04 03:37:33;;;;;;;0.32;0.20;;;;;;;7.43;100.00;96237.22;15296137;19;20063;-52
2024/01/04 03:42:58;;;;;;;0.25;0.10;;;;;;;7.48;100.00;96253.53;15294513;19;20090;-52
2024/01/04 03:48:25;;;;;;;0.50;0.20;;;;;;;7.49;100.00;96245.31;15296752;19;20018;-55
2024/01/04 03:53:50;;;;;;;0.80;0.10;;;;;;;7.49;100.00;96252.50;15288720;19;20703;-52
2024/01/04 03:59:14;;;;;;;1.17;0.30;;;;;;;7.46;100.00;96269.00;15287777;19;20016;-53
2024/01/04 04:04:42;;;;;;;0.50;0.20;;;;;;;7.40;100.00;96276.75;15292755;19;20034;-55
2024/01/04 04:10:08;;;;;;;0.25;0.20;;;;;;;7.37;100.00;96266.44;15288285;19;20018;-52
2024/01/04 04:15:33;;;;;;;0.20;0.20;;;;;;;7.35;100.00;96289.91;15295182;19;20023;-53
2024/01/04 04:21:00;;;;;;;0.20;0.20;;;;;;;7.36;100.00;96309.50;15290225;19;20014;-54
2024/01/04 04:26:26;;;;;;;0.63;0.22;;;;;;;7.37;100.00;96306.59;15286308;19;20021;-54
2024/01/04 04:31:51;;;;;;;0.50;0.10;;;;;;;7.34;100.00;96317.72;15287298;19;20014;-53
2024/01/04 04:37:18;;;;;;;0.32;0.10;;;;;;;7.35;100.00;96321.22;15290764;19;20014;-53
2024/01/04 04:42:42;;;;;;;0.10;0.10;;;;;;;7.32;100.00;96325.13;15288598;19;20702;-53
2024/01/04 04:48:07;;;;;;;0.25;0.10;;;;;;;7.35;100.00;96334.63;15276337;19;20017;-53
2024/01/04 04:53:34;;;;;;;0.30;0.17;;;;;;;7.33;100.00;96356.25;15288101;19;20117;-53
2024/01/04 04:58:59;;;;;;;0.03;0.00;;;;;;;7.36;100.00;96371.91;15285313;19;20362;-53
2024/01/04 05:04:24;;;;;;;0.00;0.00;;;;;;;7.30;100.00;96359.31;15287238;19;20550;-55
2024/01/04 05:09:52;;;;;;;0.80;0.20;;;;;;;7.33;100.00;96360.75;15281098;19;20032;-56
2024/01/04 05:15:17;;;;;;;0.10;0.10;;;;;;;7.27;100.00;96367.72;15287078;19;20014;-55
2024/01/04 05:20:41;;;;;;;0.20;0.10;;;;;;;7.22;100.00;96388.91;15291451;19;20047;-55
2024/01/04 05:26:08;;;;;;;0.47;0.22;;;;;;;7.19;100.00;96386.59;15291623;19;20469;-57
2024/01/04 05:31:35;;;;;;;0.17;0.10;;;;;;;7.15;100.00;96390.66;15284753;19;20019;-54
2024/01/04 05:37:00;;;;;;;0.00;0.00;;;;;;;7.08;100.00;96404.81;15288384;19;20022;-56
2024/01/04 05:42:28;;;;;;;0.40;0.13;;;;;;;7.11;100.00;96400.91;15282419;19;20025;-53
2024/01/04 05:47:52;;;;;;;0.10;0.10;;;;;;;7.12;100.00;96404.41;15283752;19;20771;-54
2024/01/04 05:53:17;;;;;;;0.20;0.20;;;;;;;7.13;100.00;96419.47;15284665;19;20020;-56
2024/01/04 05:58:44;;;;;;;0.10;0.10;;;;;;;7.15;100.00;96420.09;15288350;19;20035;-55
2024/01/04 06:04:09;;;;;;;1.70;0.20;;;;;;;7.18;100.00;96447.34;15276775;19;20022;-54
2024/01/04 06:09:33;;;;;;;0.00;0.00;;;;;;;7.21;100.00;96459.53;15286678;19;20027;-55
2024/01/04 06:15:03;;;;;;;0.10;0.00;;;;;;;7.20;100.00;96455.19;15290476;19;20014;-54
2024/01/04 06:20:27;;;;;;;0.20;0.00;;;;;;;7.22;100.00;96477.28;15287193;19;20016;-56
2024/01/04 06:25:52;;;;;;;0.10;0.10;;;;;;;7.21;100.00;96476.41;15288561;19;20094;-55
2024/01/04 06:31:19;;;;;;;0.82;0.10;;;;;;;7.27;100.00;96476.69;15292499;19;20021;-56
2024/01/04 06:36:44;;;;;;;0.10;0.00;;;;;;;7.31;100.00;96494.88;15294935;19;20019;-54
2024/01/04 06:42:09;;;;;;;0.10;0.10;;;;;;;7.31;100.00;96492.19;15294698;19;20866;-56
2024/01/04 06:47:36;;;;;;;0.10;0.10;;;;;;;7.36;100.00;96508.53;15298995;19;20014;-56
2024/01/04 06:53:00;;;;;;;0.98;0.17;;;;;;;7.42;100.00;96509.63;15298592;19;20362;-56
2024/01/04 06:58:25;;;;;;;0.10;0.10;;;;;;;7.45;100.00;96511.94;15298918;19;20018;-53
2024/01/04 07:03:52;;;;;;;0.30;0.20;;;;;;;7.35;100.00;96520.25;15296059;19;20014;-56
2024/01/04 07:09:18;;;;;;;0.20;0.20;;;;;;;7.07;100.00;96545.06;15293338;19;20477;-54
2024/01/04 07:14:43;;;;;;;0.03;0.03;;;;;;;6.97;100.00;96565.94;15299973;19;20035;-53
2024/01/04 07:20:11;;;;;;;0.32;0.10;;;;;;;6.98;100.00;96572.94;15299734;19;20014;-51
2024/01/04 07:25:41;;;;;;;0.10;0.10;;;;;;;7.08;100.00;96567.28;15301773;19;20022;-53
2024/01/04 07:31:06;;;;;;;0.20;0.10;;;;;;;7.16;100.00;96579.75;15291136;19;20021;-53
2024/01/04 07:36:34;;;;;;;0.15;0.00;;;;;;;7.18;100.00;96593.81;15298394;19;20018;-56
2024/01/04 07:41:59;;;;;;;0.22;0.20;;;;;;;7.17;100.00;96586.78;15286469;19;20078;-54
2024/01/04 07:47:23;;;;;;;1.83;0.20;;;;;;;7.18;100.00;96589.25;15292099;19;20018;-53
2024/01/04 07:52:51;;;;;;;0.30;0.17;;;;;;;7.13;100.00;96589.00;15292547;19;20021;-56
2024/01/04 07:58:15;;;;;;;0.15;0.15;;;;;;;7.15;100.00;96595.00;15292602;19;20496;-57
2024/01/04 08:03:40;;;;;;;0.15;0.13;;;;;;;7.13;100.00;96601.53;15287590;19;20666;-54
2024/01/04 08:09:11;;;;;;;0.25;0.13;;;;;;;7.16;100.00;96606.53;15290186;19;20029;-54
2024/01/04 08:14:35;;;;;;;0.10;0.10;;;;;;;7.13;100.00;96639.88;15292061;19;20026;-55
2024/01/04 08:19:59;;;;;;;0.15;0.15;;;;;;;6.93;100.00;96639.56;15295509;19;20355;-56
2024/01/04 08:25:27;;;;;;;0.35;0.20;;;;;;;6.74;100.00;96647.13;15294503;19;20454;-57
2024/01/04 08:30:51;;;;;;;0.30;0.30;;;;;;;6.66;100.00;96665.09;15294773;19;20078;-57
2024/01/04 08:36:18;;;;;;;0.20;0.20;;;;;;;6.64;100.00;96675.97;15296663;19;20074;-54
2024/01/04 08:41:45;;;;;;;0.20;0.20;;;;;;;6.61;100.00;96685.16;15290890;19;20018;-55
2024/01/04 08:47:10;;;;;;;0.98;0.20;;;;;;;6.61;100.00;96705.75;15294566;19;20007;-57
2024/01/04 08:52:36;;;;;;;0.20;0.20;;;;;;;6.65;100.00;96719.59;15289315;19;20029;-58
2024/01/04 08:58:03;;;;;;;0.30;0.20;;;;;;;6.66;100.00;96735.47;15289077;19;20020;-56
2024/01/04 09:03:27;;;;;;;1.33;0.20;;;;;;;6.78;100.00;96734.03;15288439;19;20035;-54
2024/01/04 09:08:52;;;;;;;0.20;0.17;;;;;;;6.86;100.00;96743.03;15286063;19;20042;-56
2024/01/04 09:14:19;;;;;;;0.40;0.20;;;;;;;6.97;100.00;96745.28;15280783;19;20010;-53
2024/01/04 09:19:44;;;;;;;0.55;0.20;;;;;;;7.03;100.00;96755.25;15288115;19;20022;-54
2024/01/04 09:25:09;;;;;;;0.43;0.17;;;;;;;7.08;100.00;96735.97;15288595;19;20364;-55
2024/01/04 09:30:37;;;;;;;0.38;0.20;;;;;;;7.12;100.00;96749.84;15290386;19;20025;-53
2024/01/04 09:36:02;;;;;;;0.68;0.25;;;;;;;7.15;100.00;96754.84;15291392;19;20018;-53
2024/01/04 09:41:31;;;;;;;0.57;0.20;;;;;;;7.23;100.00;96768.19;15290745;19;20014;-58
2024/01/04 09:47:01;;;;;;;0.40;0.10;;;;;;;7.28;100.00;96765.78;15283320;19;20023;-58
2024/01/04 09:52:26;;;;;;;0.35;0.20;;;;;;;7.32;100.00;96776.94;15283098;19;20021;-54
2024/01/04 09:57:51;;;;;;;0.20;0.20;;;;;;;7.33;100.00;96768.75;15291937;19;20033;-54
2024/01/04 10:03:20;;;;;;;1.20;0.32;;;;;;;7.39;100.00;96788.63;15283035;19;20014;-55
2024/01/04 10:08:54;;;;;;;0.32;0.20;;;;;;;7.44;100.00;96783.53;15303009;19;20078;-53
2024/01/04 10:14:20;;;;;;;0.30;0.20;;;;;;;7.46;100.00;96794.09;15297832;19;20394;-53
2024/01/04 10:19:47;;;;;;;0.93;0.30;;;;;;;7.44;100.00;96796.09;15294365;19;20090;-53
2024/01/04 10:25:18;;;;;;;0.52;0.20;;;;;;;7.42;100.00;96787.41;15303237;19;20025;-53
2024/01/04 10:30:42;;;;;;;0.27;0.27;;;;;;;7.43;100.00;96807.84;15301522;19;20018;-54
2024/01/04 10:36:16;;;;;;;0.52;0.30;;;;;;;7.42;100.00;96787.41;15301716;19;20243;-52
2024/01/04 10:41:40;;;;;;;0.20;0.20;;;;;;;7.44;100.00;96806.84;15302384;19;20018;-53
2024/01/04 10:47:09;;;;;;;0.68;0.38;;;;;;;7.44;100.00;96809.50;15300717;19;20042;-52
2024/01/04 10:52:39;;;;;;;0.22;0.20;;;;;;;7.40;100.00;96817.91;15288951;19;20091;-52
2024/01/04 10:58:05;;;;;;;0.28;0.10;;;;;;;7.35;100.00;96822.13;15297164;19;20043;-55
2024/01/04 11:03:32;;;;;;;1.45;0.30;;;;;;;7.28;100.00;96829.22;15285172;19;20250;-52
2024/01/04 11:09:01;;;;;;;0.30;0.30;;;;;;;7.11;100.00;96839.25;15296100;19;20095;-54
2024/01/04 11:14:25;;;;;;;0.20;0.20;;;;;;;6.99;100.00;96849.50;15294206;19;20042;-53
2024/01/04 11:20:02;;;;;;;0.22;0.13;;;;;;;6.91;100.00;96853.06;15298936;19;20435;-54
2024/01/04 11:25:44;;;;;;;0.20;0.20;;;;;;;6.90;100.00;96859.44;15298600;19;20014;-53
2024/01/04 11:31:15;;;;;;;0.27;0.17;;;;;;;6.91;100.00;96855.75;15298361;19;20039;-54
2024/01/04 11:36:41;;;;;;;0.10;0.10;;;;;;;6.94;100.00;96880.31;15302184;19;20255;-52
2024/01/04 11:42:20;;;;;;;0.20;0.10;;;;;;;6.92;100.00;96873.47;15299472;19;20014;-55
2024/01/04 11:47:47;;;;;;;0.20;0.10;;;;;;;6.85;100.00;96888.59;15276099;19;20099;-52
2024/01/04 11:53:14;;;;;;;0.40;0.20;;;;;;;6.78;100.00;96857.16;15293795;19;20020;-53
2024/01/04 11:58:42;;;;;;;0.13;0.00;;;;;;;6.79;100.00;96869.53;15293030;19;20420;-56
2024/01/04 12:04:15;;;;;;;0.10;0.10;;;;;;;6.81;100.00;96888.13;15292161;19;20085;-55
2024/01/04 12:09:46;;;;;;;0.17;0.10;;;;;;;6.81;100.00;96868.53;15291864;19;20022;-56
2024/01/04 12:15:14;;;;;;;0.20;0.20;;;;;;;6.83;100.00;96870.00;15293755;19;20457;-54
2024/01/04 12:20:38;;;;;;;0.55;0.20;;;;;;;6.85;100.00;96878.69;15295709;19;20280;-56
2024/01/04 12:26:04;;;;;;;1.65;0.25;;;;;;;6.88;100.00;96889.06;15292202;19;20031;-55
2024/01/04 12:31:32;;;;;;;0.43;0.22;;;;;;;6.91;100.00;96894.06;15288033;19;20025;-56
2024/01/04 12:37:06;;;;;;;0.77;0.30;;;;;;;6.93;100.00;96901.91;15296414;19;20357;-56
2024/01/04 12:42:32;;;;;;;0.43;0.13;;;;;;;6.94;100.00;96898.25;15294154;19;20029;-55
2024/01/04 12:48:07;;;;;;;0.30;0.20;;;;;;;7.01;100.00;96915.25;15295541;19;20094;-52
2024/01/04 12:53:31;;;;;;;1.55;0.20;;;;;;;7.06;100.00;96915.56;15292148;19;20021;-55
2024/01/04 12:58:56;;;;;;;0.10;0.10;;;;;;;7.18;100.00;96912.50;15292267;19;20024;-55
2024/01/04 13:04:24;;;;;;;0.30;0.28;;;;;;;7.21;100.00;96912.16;15286408;19;20022;-55
2024/01/04 13:09:49;;;;;;;0.30;0.20;;;;;;;7.21;100.00;96920.19;15292912;19;20038;-55
2024/01/04 13:15:14;;;;;;;1.08;0.25;;;;;;;7.22;100.00;96948.63;15290090;19;20031;-52
2024/01/04 13:20:41;;;;;;;0.20;0.20;;;;;;;7.25;100.00;96926.84;15289003;19;20033;-55
2024/01/04 13:26:06;;;;;;;0.20;0.20;;;;;;;7.24;100.00;96931.38;15289636;19;20014;-55
2024/01/04 13:31:32;;;;;;;0.10;0.10;;;;;;;7.21;100.00;96946.97;15288980;19;20015;-55
2024/01/04 13:37:00;;;;;;;0.95;0.30;;;;;;;7.12;100.00;96943.50;15291698;19;20086;-51
2024/01/04 13:42:25;;;;;;;0.20;0.20;;;;;;;7.00;100.00;96959.09;15301409;19;20499;-56
2024/01/04 13:47:49;;;;;;;0.60;0.20;;;;;;;6.90;100.00;96971.88;15306687;19;20119;-54
2024/01/04 13:53:17;;;;;;;0.22;0.20;;;;;;;6.87;100.00;96991.78;15302061;19;20018;-53
2024/01/04 13:58:42;;;;;;;0.20;0.20;;;;;;;6.85;100.00;96982.28;15298043;19;20090;-55
2024/01/04 14:04:08;;;;;;;0.47;0.30;;;;;;;6.82;100.00;96996.00;15292790;19;20014;-54
2024/01/04 14:09:35;;;;;;;0.30;0.20;;;;;;;6.77;100.00;97017.94;15302037;19;20417;-53
2024/01/04 14:15:00;;;;;;;0.35;0.30;;;;;;;6.75;100.00;97028.81;15297296;19;20024;-54
2024/01/04 14:20:26;;;;;;;0.25;0.25;;;;;;;6.76;100.00;97051.88;15303641;19;20015;-54
2024/01/04 14:25:53;;;;;;;0.63;0.30;;;;;;;6.76;100.00;97035.00;15302702;19;20479;-51
2024/01/04 14:31:18;;;;;;;0.57;0.35;;;;;;;6.74;100.00;97053.91;15300093;19;20039;-53
2024/01/04 14:36:44;;;;;;;0.52;0.20;;;;;;;6.73;100.00;97072.78;15296096;19;20816;-53
2024/01/04 14:42:11;;;;;;;0.20;0.20;;;;;;;6.69;100.00;97077.66;15299539;19;20018;-53
2024/01/04 14:47:36;;;;;;;0.55;0.20;;;;;;;6.66;100.00;97088.69;15302593;19;20352;-52
2024/01/04 14:53:03;;;;;;;0.20;0.20;;;;;;;6.63;100.00;97111.28;15296681;19;20025;-50
2024/01/04 14:58:30;;;;;;;0.13;0.13;;;;;;;6.60;100.00;97100.09;15298708;19;20035;-55
2024/01/04 15:03:55;;;;;;;0.40;0.20;;;;;;;6.60;100.00;97132.19;15296720;19;20018;-52
2024/01/04 15:09:26;;;;;;;0.57;0.30;;;;;;;6.59;100.00;97125.19;15293908;19;20081;-51
2024/01/04 15:14:53;;;;;;;1.10;0.30;;;;;;;6.53;100.00;97139.22;15296634;19;20039;-50
2024/01/04 15:20:19;;;;;;;0.38;0.28;;;;;;;6.40;100.00;97150.41;15299220;19;20433;-51
2024/01/04 15:25:45;;;;;;;0.57;0.32;;;;;;;6.27;100.00;97170.47;15297830;19;20014;-51
2024/01/04 15:31:12;;;;;;;0.40;0.40;;;;;;;6.17;100.00;97170.59;15299784;19;20014;-54
2024/01/04 15:36:37;;;;;;;0.30;0.30;;;;;;;6.13;100.00;97182.66;15293549;19;20373;-51
2024/01/04 15:42:01;;;;;;;0.40;0.40;;;;;;;6.12;100.00;97189.00;15291529;19;20033;-54
2024/01/04 15:47:29;;;;;;;0.55;0.40;;;;;;;6.15;100.00;97194.03;15298441;19;20065;-51
2024/01/04 15:52:54;;;;;;;0.38;0.30;;;;;;;6.15;100.00;97194.03;15290293;19;20028;-54
2024/01/04 15:58:19;;;;;;;0.40;0.40;;;;;;;6.14;100.00;97205.72;15297841;19;20078;-53
2024/01/04 16:03:46;;;;;;;0.45;0.40;;;;;;;6.08;100.00;97216.22;15271630;19;20006;-52
2024/01/04 16:09:12;;;;;;;0.68;0.60;;;;;;;5.97;100.00;97228.00;15296063;19;20022;-52
2024/01/04 16:14:37;;;;;;;0.75;0.68;;;;;;;5.87;100.00;97254.88;15289605;19;20021;-54
2024/01/04 16:20:06;;;;;;;0.55;0.55;;;;;;;5.76;100.00;97274.69;15294418;19;20089;-55
2024/01/04 16:25:47;;;;;;;0.52;0.50;;;;;;;5.66;100.00;97274.81;15294712;19;20026;-55
2024/01/04 16:31:12;;;;;;;0.88;0.63;;;;;;;5.61;100.00;97303.00;15293517;19;20086;-56
2024/01/04 16:36:39;;;;;;;0.75;0.60;;;;;;;5.58;100.00;97311.34;15289490;19;20050;-51
2024/01/04 16:42:04;;;;;;;0.80;0.73;;;;;;;5.57;100.00;97328.38;15292368;19;20011;-51
2024/01/04 16:47:28;;;;;;;0.82;0.80;;;;;;;5.58;100.00;97338.06;15286436;19;20769;-54
2024/01/04 16:52:56;;;;;;;0.60;0.60;;;;;;;5.59;100.00;97353.06;15291103;19;20025;-53
2024/01/04 16:58:21;;;;;;;0.73;0.73;;;;;;;5.62;100.00;97355.44;15294513;19;20539;-53
2024/01/04 17:03:46;;;;;;;0.95;0.50;;;;;;;5.60;100.00;97352.06;15289876;19;20019;-56
2024/01/04 17:09:13;;;;;;;0.55;0.55;;;;;;;5.57;100.00;97360.44;15290140;19;20019;-55
2024/01/04 17:14:39;;;;;;;0.60;0.60;;;;;;;5.55;100.00;97374.78;15288937;19;20016;-55
2024/01/04 17:20:04;;;;;;;0.50;0.50;;;;;;;5.53;100.00;97395.47;15285711;19;20018;-55
2024/01/04 17:25:31;;;;;;;1.15;0.80;;;;;;;5.50;100.00;97401.09;15286363;19;20014;-56
2024/01/04 17:30:56;;;;;;;3.70;1.08;;;;;;;5.47;100.00;97408.59;15285979;19;20031;-55
2024/01/04 17:36:21;;;;;;;2.08;0.90;;;;;;;5.44;100.00;97404.41;15284137;19;20366;-56
2024/01/04 17:42:01;;;;;;;1.00;0.90;;;;;;;5.42;100.00;97427.75;15286984;19;20021;-55
2024/01/04 17:47:27;;;;;;;1.05;0.95;;;;;;;5.39;100.00;97428.06;15288024;19;20016;-55
2024/01/04 17:52:51;;;;;;;1.00;0.90;;;;;;;5.39;100.00;97439.59;15281369;19;20021;-56
2024/01/04 17:58:20;;;;;;;1.13;1.02;;;;;;;5.39;100.00;97444.06;15287573;19;20019;-56
2024/01/04 18:03:45;;;;;;;1.20;1.10;;;;;;;5.37;100.00;97440.72;15286256;19;20093;-54
2024/01/04 18:09:16;;;;;;;1.23;1.15;;;;;;;5.37;100.00;97454.06;15288137;19;20015;-55
2024/01/04 18:14:43;;;;;;;1.30;1.20;;;;;;;5.37;100.00;97459.41;15283030;19;20025;-54
2024/01/04 18:20:08;;;;;;;1.73;1.48;;;;;;;5.35;100.00;97467.59;15288120;19;20895;-55
2024/01/04 18:25:33;;;;;;;1.00;1.00;;;;;;;5.36;100.00;97473.75;15277339;19;20802;-55
2024/01/04 18:31:00;;;;;;;1.65;1.13;;;;;;;5.37;100.00;97478.09;15296404;19;20086;-54
2024/01/04 18:36:25;;;;;;;1.13;0.93;;;;;;;5.38;100.00;97486.00;15295151;19;20021;-57
2024/01/04 18:41:49;;;;;;;1.02;0.80;;;;;;;5.39;100.00;97482.34;15296305;19;20380;-53
2024/01/04 18:47:16;;;;;;;0.90;0.90;;;;;;;5.41;100.00;97498.19;15299663;19;20018;-52
2024/01/04 18:52:42;;;;;;;1.52;0.88;;;;;;;5.42;100.00;97512.38;15291320;19;20018;-56
2024/01/04 18:58:07;;;;;;;0.90;0.90;;;;;;;5.45;100.00;97522.75;15292036;19;20588;-52
2024/01/04 19:03:34;;;;;;;1.00;1.00;;;;;;;5.45;100.00;97531.63;15292092;19;20021;-54
2024/01/04 19:08:59;;;;;;;1.55;1.30;;;;;;;5.47;100.00;97526.97;15297585;19;20014;-56
2024/01/04 19:14:23;;;;;;;1.45;1.23;;;;;;;5.49;100.00;97529.50;15292280;19;20392;-53
2024/01/04 19:19:51;;;;;;;1.50;1.40;;;;;;;5.52;100.00;97546.06;15298020;19;20042;-56
2024/01/04 19:25:16;;;;;;;2.38;1.85;;;;;;;5.54;100.00;97556.59;15295346;19;20010;-55
2024/01/04 19:30:41;;;;;;;3.50;1.80;;;;;;;5.53;100.00;97549.56;15292512;19;20043;-55
2024/01/04 19:36:08;;;;;;;2.80;2.60;;;;;;;5.58;100.00;97557.16;15292440;19;20015;-55
2024/01/04 19:41:33;;;;;;;2.70;2.50;;;;;;;5.57;100.00;97563.47;15293451;19;20057;-54
2024/01/04 19:46:57;;;;;;;4.53;2.80;;;;;;;5.54;100.00;97559.25;15291060;19;20021;-54
2024/01/04 19:52:27;;;;;;;2.50;2.30;;;;;;;5.57;100.00;97563.47;15286990;19;20025;-56
2024/01/04 19:57:51;;;;;;;3.97;2.92;;;;;;;5.57;100.00;97569.66;15287460;19;20085;-55
2024/01/04 20:03:16;;;;;;;3.22;2.50;;;;;;;5.59;100.00;97580.16;15291074;19;20088;-56
2024/01/04 20:08:43;;;;;;;1.35;1.20;;;;;;;5.59;100.00;97583.69;15292419;19;20788;-54
2024/01/04 20:14:14;;;;;;;0.90;0.88;;;;;;;5.61;100.00;97591.56;15287968;19;20007;-55
2024/01/04 20:19:40;;;;;;;2.28;0.82;;;;;;;5.61;100.00;97586.22;15293766;19;20011;-55
2024/01/04 20:25:07;;;;;;;2.60;0.73;;;;;;;5.63;100.00;97598.47;15291259;19;20496;-56
2024/01/04 20:30:32;;;;;;;2.60;0.90;;;;;;;5.62;100.00;97587.91;15286478;19;20018;-54
2024/01/04 20:35:56;;;;;;;3.42;0.95;;;;;;;5.59;100.00;97593.53;15289408;19;20017;-55
2024/01/04 20:41:17;;;;;;;2.50;0.75;;;;;;;5.61;100.00;97586.22;15289563;19;20014;-54
2024/01/04 20:46:43;;;;;;;3.28;0.90;;;;;;;5.60;100.00;97581.84;15289717;19;20257;-54
2024/01/04 20:52:11;;;;;;;4.45;0.90;;;;;;;5.59;100.00;97577.50;15283830;19;20017;-53
2024/01/04 20:57:32;;;;;;;3.65;1.02;;;;;;;5.57;100.00;97585.69;15281846;19;20094;-53
2024/01/04 21:03:00;;;;;;;3.30;1.10;;;;;;;5.57;100.00;97585.69;15282672;19;20086;-51
2024/01/04 21:08:25;;;;;;;2.80;0.93;;;;;;;5.55;100.00;97596.53;15291145;19;20488;-53
2024/01/04 21:14:00;;;;;;;3.75;1.00;;;;;;;5.59;100.00;97613.09;15285515;19;20018;-55
2024/01/04 21:19:25;;;;;;;3.90;1.10;;;;;;;5.65;100.00;97614.31;15286211;19;20018;-51
2024/01/04 21:24:51;;;;;;;3.72;1.05;;;;;;;5.69;100.00;97608.53;15288492;19;20015;-55
2024/01/04 21:30:20;;;;;;;3.90;0.90;;;;;;;5.73;100.00;97600.22;15288670;19;20483;-53
2024/01/04 21:35:45;;;;;;;5.25;0.90;;;;;;;5.69;100.00;97597.00;15282750;19;20355;-56
2024/01/04 21:41:12;;;;;;;2.83;0.90;;;;;;;5.66;100.00;97600.81;15287395;19;20023;-52
2024/01/04 21:46:40;;;;;;;3.35;0.95;;;;;;;5.64;100.00;97591.25;15289197;19;20055;-51
2024/01/04 21:52:07;;;;;;;6.03;0.98;;;;;;;5.54;100.00;97591.31;15280889;19;20617;-52
2024/01/04 21:57:31;;;;;;;3.72;1.17;;;;;;;5.51;100.00;97602.31;15277609;19;20022;-53
2024/01/04 22:03:07;;;;;;;3.67;0.90;;;;;;;5.49;100.00;97599.78;15289001;19;20029;-55
2024/01/04 22:08:32;;;;;;;2.38;0.98;;;;;;;5.44;100.00;97599.41;15296445;19;20018;-51
2024/01/04 22:14:03;;;;;;;4.65;1.17;;;;;;;5.46;100.00;97605.44;15293992;19;20059;-55
2024/01/04 22:19:30;;;;;;;2.93;0.83;;;;;;;5.43;100.00;97592.38;15299208;19;20021;-54
2024/01/04 22:24:55;;;;;;;3.80;1.35;;;;;;;5.43;100.00;97591.53;15299373;19;20330;-55
2024/01/04 22:30:20;;;;;;;3.75;1.40;;;;;;;5.39;100.00;97604.34;15301479;19;20082;-56
2024/01/04 22:35:49;;;;;;;4.97;1.30;;;;;;;5.34;100.00;97585.25;15299699;19;20014;-51
2024/01/04 22:41:14;;;;;;;4.70;1.48;;;;;;;5.29;100.00;97595.53;15293265;19;20102;-50
2024/01/04 22:46:38;;;;;;;3.40;1.30;;;;;;;5.26;100.00;97588.69;15300976;19;20031;-51
2024/01/04 22:52:06;;;;;;;4.97;1.33;;;;;;;5.17;100.00;97586.91;15294299;19;20365;-52
2024/01/04 22:57:30;;;;;;;3.85;1.40;;;;;;;5.04;100.00;97585.41;15290137;19;20018;-51
2024/01/04 23:02:56;;;;;;;4.93;1.38;;;;;;;4.93;100.00;97589.09;15294700;19;20090;-51
2024/01/04 23:08:23;;;;;;;4.00;1.25;;;;;;;4.82;100.00;97586.59;15297468;19;20463;-52
2024/01/04 23:13:54;;;;;;;5.30;1.33;;;;;;;4.73;100.00;97590.97;15286736;19;20013;-55
2024/01/04 23:19:19;;;;;;;6.38;1.63;;;;;;;4.66;100.00;97583.69;15294628;19;20478;-54
2024/01/04 23:24:49;;;;;;;6.25;1.50;;;;;;;4.56;100.00;97581.88;15295007;19;20021;-54
2024/01/04 23:30:15;;;;;;;6.07;1.45;;;;;;;4.51;100.00;97588.63;15294148;19;20024;-51
2024/01/04 23:35:39;;;;;;;5.88;1.50;;;;;;;4.46;100.00;97597.06;15293546;19;20377;-51
2024/01/04 23:41:08;;;;;;;5.32;1.60;;;;;;;4.42;100.00;97579.66;15293749;19;20490;-55
2024/01/04 23:46:32;;;;;;;4.45;1.40;;;;;;;4.39;100.00;97569.31;15287852;19;20014;-54
2024/01/04 23:51:57;;;;;;;5.93;1.35;;;;;;;4.34;100.00;97575.06;15292990;19;20025;-51
2024/01/04 23:57:25;;;;;;;7.78;1.55;;;;;;;4.36;100.00;97564.25;15293174;19;20017;-53
